Time;durP1;ratioP1;P1;durP2;ratioP2;P2;SDS_P1;SDS_P2;PMS_P1;PMS_P2;Temp;Humidity;BMP_temperature;BMP_pressure;BME280_temperature;BME280_humidity;BME280_pressure;Samples;Min_cycle;Max_cycle;Signal;HPM_P1;HPM_P2
2021/03/02 00:01:14;;;;;;;24.67;16.52;;;7.80;99.90;;;7.57;84.70;102045.28;4120752;28;20027;-72
2021/03/02 00:03:17;;;;;;;24.42;16.30;;;7.80;99.90;;;7.47;84.79;102038.94;4120947;28;20041;-72
2021/03/02 00:05:18;;;;;;;23.83;15.40;;;7.80;99.90;;;7.52;85.14;102041.28;4120953;28;20125;-72
2021/03/02 00:07:19;;;;;;;24.83;17.17;;;7.80;99.90;;;7.36;85.18;102033.59;4120834;28;20027;-72
2021/03/02 00:09:20;;;;;;;24.48;16.00;;;7.70;99.90;;;7.43;85.34;102036.66;4120674;28;20406;-72
2021/03/02 00:11:23;;;;;;;26.27;17.23;;;7.70;99.90;;;7.38;84.79;102030.88;4103441;28;20047;-72
2021/03/02 00:13:25;;;;;;;25.40;17.70;;;7.80;99.90;;;7.34;85.13;102032.03;4120610;28;20031;-72
2021/03/02 00:15:26;;;;;;;28.60;17.23;;;7.70;99.90;;;7.38;85.51;102044.81;4110940;28;20034;-72
2021/03/02 00:17:55;;;;;;;24.60;16.42;;;7.70;99.90;;;7.40;86.08;102058.72;4100212;29;20031;-72
2021/03/02 00:20:04;;;;;;;27.63;17.15;;;7.70;99.90;;;7.51;86.53;102052.72;4078853;29;20042;-72
2021/03/02 00:22:43;;;;;;;28.30;17.90;;;7.70;99.90;;;7.10;86.69;102030.13;4120691;28;20395;-72
2021/03/02 00:24:49;;;;;;;29.70;19.25;;;7.70;99.90;;;7.45;86.89;102050.50;4083721;28;20039;-72
2021/03/02 00:26:56;;;;;;;30.75;17.98;;;7.80;99.90;;;7.47;87.18;102059.09;4120450;28;20418;-72
2021/03/02 00:29:03;;;;;;;25.73;18.38;;;7.80;99.90;;;7.46;86.60;102053.03;4120631;28;20130;-72
2021/03/02 00:31:04;;;;;;;28.55;18.98;;;7.80;99.90;;;7.57;86.41;102040.00;4120337;28;20495;-72
2021/03/02 00:33:06;;;;;;;33.75;19.20;;;7.90;99.90;;;7.60;86.20;102039.81;4103382;29;20032;-72
2021/03/02 00:35:08;;;;;;;31.58;18.70;;;7.90;99.90;;;7.58;86.09;102041.72;4119784;28;20050;-72
2021/03/02 00:37:09;;;;;;;30.67;18.45;;;8.00;99.90;;;7.57;86.49;102040.00;4120078;28;20061;-72
2021/03/02 00:39:10;;;;;;;27.95;17.38;;;8.00;99.90;;;7.44;85.46;102012.91;4120532;28;20027;-72
2021/03/02 00:41:11;;;;;;;32.08;18.98;;;8.10;99.90;;;7.69;85.93;102041.81;4103253;29;20027;-72
2021/03/02 00:43:12;;;;;;;29.27;17.67;;;8.10;99.90;;;7.68;85.37;102034.00;4120404;28;20038;-72
2021/03/02 00:45:14;;;;;;;28.92;18.73;;;8.10;99.90;;;7.63;86.33;102033.50;4120055;28;20035;-72
2021/03/02 00:47:14;;;;;;;28.80;18.90;;;8.10;99.90;;;7.58;85.60;102028.56;4120564;28;20086;-72
2021/03/02 00:49:16;;;;;;;34.90;19.38;;;8.10;99.90;;;7.61;85.67;102033.63;4120208;28;20069;-72
2021/03/02 00:51:17;;;;;;;32.03;18.85;;;8.10;99.90;;;7.46;85.95;102015.44;4120193;28;20031;-72
2021/03/02 00:53:18;;;;;;;34.50;19.90;;;8.10;99.90;;;7.65;85.50;102042.09;4120106;28;20050;-72
2021/03/02 00:55:19;;;;;;;29.25;19.08;;;8.10;99.90;;;7.53;85.81;102021.94;4120292;28;20034;-72
2021/03/02 00:57:20;;;;;;;29.58;19.08;;;8.10;99.90;;;7.60;85.27;102021.44;4120185;28;20051;-72
2021/03/02 00:59:21;;;;;;;29.83;19.00;;;8.10;99.90;;;7.65;85.59;102031.59;4119887;28;20034;-72
2021/03/02 01:01:22;;;;;;;37.85;20.30;;;8.10;99.90;;;7.59;85.25;102032.88;4119909;28;20069;-72
2021/03/02 01:03:23;;;;;;;32.08;19.02;;;8.10;99.90;;;7.48;85.71;102034.53;4120193;28;20031;-72
2021/03/02 01:05:23;;;;;;;25.90;19.23;;;8.00;99.90;;;7.55;85.70;102026.16;4102969;29;20640;-72
2021/03/02 01:07:24;;;;;;;31.20;19.58;;;7.90;99.90;;;7.51;86.09;102014.19;4120269;28;20050;-72
2021/03/02 01:09:25;;;;;;;27.75;18.95;;;7.90;99.90;;;7.45;86.45;102017.22;4102727;29;20027;-72
2021/03/02 01:11:26;;;;;;;28.30;18.98;;;7.80;99.90;;;7.38;86.33;102017.75;4120124;28;20034;-72
2021/03/02 01:13:27;;;;;;;28.52;19.25;;;7.80;99.90;;;7.22;86.65;102007.44;4120006;28;20034;-72
2021/03/02 01:15:28;;;;;;;28.10;18.33;;;7.70;99.90;;;7.23;86.59;102030.94;4109850;28;20027;-72
2021/03/02 01:17:29;;;;;;;28.17;18.00;;;7.70;99.90;;;7.10;86.82;102011.75;4116847;28;20022;-72
2021/03/02 01:19:30;;;;;;;29.70;18.65;;;7.60;99.90;;;6.77;86.50;101965.94;4102811;29;20051;-72
2021/03/02 01:21:31;;;;;;;30.50;19.80;;;7.50;99.90;;;6.98;87.30;102006.47;4119899;28;20026;-72
2021/03/02 01:23:32;;;;;;;34.72;19.38;;;7.40;99.90;;;7.03;87.20;102002.59;4119818;28;20026;-72
2021/03/02 01:25:33;;;;;;;26.60;18.63;;;7.40;99.90;;;7.09;86.48;102007.44;4102714;29;20083;-72
2021/03/02 01:27:34;;;;;;;27.85;17.80;;;7.40;99.90;;;7.22;86.03;102007.44;4102729;29;20463;-72
2021/03/02 01:29:35;;;;;;;30.45;20.67;;;7.40;99.90;;;7.16;86.13;102021.84;4119657;28;20022;-72
2021/03/02 01:31:36;;;;;;;31.30;17.67;;;7.40;99.90;;;7.22;85.67;102010.94;4119801;28;20034;-72
2021/03/02 01:33:36;;;;;;;26.60;18.08;;;7.50;99.90;;;7.18;85.79;102013.84;4102625;29;20029;-72
2021/03/02 01:35:37;;;;;;;24.65;18.20;;;7.40;99.90;;;6.96;86.74;102001.31;4102280;29;20051;-72
2021/03/02 01:37:39;;;;;;;27.92;19.48;;;7.40;99.90;;;6.94;87.25;102004.97;4119629;28;20051;-72
2021/03/02 01:39:40;;;;;;;29.38;17.67;;;7.30;99.90;;;7.03;86.70;102018.34;4119588;28;20030;-72
2021/03/02 01:41:50;;;;;;;29.08;18.45;;;7.30;99.90;;;7.00;86.35;102012.44;4119599;28;20403;-72
2021/03/02 01:43:51;;;;;;;28.77;17.90;;;7.20;99.90;;;6.86;87.34;102017.78;4119699;28;20054;-72
2021/03/02 01:45:52;;;;;;;27.40;17.23;;;7.20;99.90;;;6.54;88.42;101994.47;4119488;28;20046;-72
2021/03/02 01:47:53;;;;;;;30.00;17.92;;;7.10;99.90;;;6.63;88.43;102009.63;4119276;28;20113;-72
2021/03/02 01:49:54;;;;;;;29.15;18.63;;;7.00;99.90;;;6.62;88.59;102007.94;4119679;28;20497;-72
2021/03/02 01:51:56;;;;;;;31.42;19.30;;;7.00;99.90;;;6.67;88.56;102015.50;4102556;29;20027;-72
2021/03/02 01:53:58;;;;;;;32.95;21.30;;;7.00;99.90;;;6.71;87.97;102010.91;4102509;29;20034;-72
2021/03/02 01:56:00;;;;;;;32.83;21.88;;;7.00;99.90;;;6.49;88.03;101980.00;4119732;28;20031;-72
2021/03/02 01:58:00;;;;;;;31.65;20.25;;;6.90;99.90;;;6.53;87.55;101976.25;4102310;29;20102;-72
2021/03/02 02:00:11;;;;;;;26.25;17.63;;;7.00;99.90;;;6.72;87.61;102018.66;4119433;28;20031;-71
2021/03/02 02:02:21;;;;;;;32.10;18.25;;;6.90;99.90;;;6.57;87.55;102003.97;4102263;29;20122;-72
2021/03/02 02:04:33;;;;;;;28.67;17.73;;;6.90;99.90;;;6.58;87.79;102011.69;4102876;28;20039;-72
2021/03/02 02:07:00;;;;;;;30.83;20.13;;;6.80;99.90;;;6.61;87.77;101990.53;4103174;28;20028;-72
2021/03/02 02:09:19;;;;;;;27.73;18.88;;;6.90;99.90;;;6.46;88.10;101993.31;4102996;28;20619;-72
2021/03/02 02:12:00;;;;;;;31.52;18.95;;;6.90;99.90;;;6.35;89.37;102014.97;4102537;29;20181;-72
2021/03/02 02:15:06;;;;;;;34.13;21.08;;;6.80;99.90;;;6.12;89.77;101981.53;4119163;28;20046;-72
2021/03/02 02:17:31;;;;;;;28.48;17.33;;;6.70;99.90;;;6.25;90.49;102011.25;4059383;29;20039;-72
2021/03/02 02:19:47;;;;;;;28.80;20.35;;;6.70;99.90;;;6.25;89.95;101998.13;4107131;28;20073;-72
2021/03/02 02:22:10;;;;;;;28.92;19.23;;;6.70;99.90;;;6.31;89.94;102007.38;4102830;28;20079;-72
2021/03/02 02:24:27;;;;;;;31.58;19.95;;;6.70;99.90;;;6.23;89.77;101992.16;4119261;28;20082;-71
2021/03/02 02:26:57;;;;;;;31.17;18.90;;;6.70;99.90;;;6.32;89.90;102009.06;4102429;28;20143;-72
2021/03/02 02:29:00;;;;;;;36.45;22.80;;;6.60;99.90;;;6.39;90.19;102003.34;4119181;28;20617;-72
2021/03/02 02:31:04;;;;;;;34.90;21.20;;;6.60;99.90;;;6.41;90.02;102004.09;4119313;28;20027;-72
2021/03/02 02:33:08;;;;;;;35.67;23.90;;;6.70;99.90;;;6.39;89.39;102010.38;4102238;28;20023;-72
2021/03/02 02:35:11;;;;;;;31.63;19.73;;;6.70;99.90;;;6.34;89.60;102001.94;4119240;28;20043;-72
2021/03/02 02:37:13;;;;;;;27.75;18.98;;;6.60;99.90;;;6.34;90.12;102007.19;4119264;28;20380;-72
2021/03/02 02:39:18;;;;;;;32.60;18.00;;;6.60;99.90;;;6.31;89.76;101996.91;4119274;28;20158;-72
2021/03/02 02:41:21;;;;;;;30.95;18.88;;;6.60;99.90;;;6.21;89.54;101986.19;4119159;28;20031;-72
2021/03/02 02:43:23;;;;;;;31.38;19.77;;;6.60;99.90;;;6.16;89.55;101984.78;4102027;28;20033;-72
2021/03/02 02:45:24;;;;;;;28.52;19.48;;;6.60;99.90;;;6.10;89.69;101991.25;4119084;28;20513;-72
2021/03/02 02:47:27;;;;;;;29.58;19.30;;;6.50;99.90;;;6.21;89.44;101996.66;4119295;28;20402;-72
2021/03/02 02:49:30;;;;;;;28.52;19.58;;;6.50;99.90;;;5.88;89.43;101942.03;4101983;29;20035;-72
2021/03/02 02:51:32;;;;;;;28.88;19.23;;;6.50;99.90;;;5.77;89.05;101925.25;4102095;28;20019;-72
2021/03/02 02:53:35;;;;;;;29.40;18.52;;;6.50;99.90;;;5.67;89.66;101918.91;4102293;28;20082;-72
2021/03/02 02:55:50;;;;;;;34.20;19.02;;;6.50;99.90;;;6.12;89.37;101998.06;4119166;28;20031;-72
2021/03/02 02:57:52;;;;;;;34.90;21.05;;;6.40;99.90;;;6.17;89.18;101981.22;4119218;28;20061;-72
2021/03/02 02:59:54;;;;;;;30.88;20.48;;;6.40;99.90;;;6.10;89.33;101967.66;4073115;29;20115;-72
2021/03/02 03:02:00;;;;;;;34.47;20.20;;;6.50;99.90;;;6.20;89.38;101987.13;4094399;29;20492;-72
2021/03/02 03:04:05;;;;;;;27.20;19.60;;;6.50;99.90;;;6.19;89.34;101998.53;4122054;28;20031;-72
2021/03/02 03:06:10;;;;;;;34.67;20.42;;;6.40;99.90;;;6.09;89.17;101981.72;4104977;28;20122;-72
2021/03/02 03:08:25;;;;;;;28.35;18.08;;;6.50;99.90;;;6.15;89.18;101999.69;4105149;28;20027;-72
2021/03/02 03:10:29;;;;;;;29.90;18.48;;;6.40;99.90;;;6.10;89.41;101994.72;4121865;28;20038;-72
2021/03/02 03:12:33;;;;;;;;;;;6.40;99.90;;;6.01;89.18;101987.44;4122302;28;20522;-72
2021/03/02 03:14:42;;;;;;;26.83;18.33;;;6.40;99.90;;;6.11;88.84;101995.56;4075706;29;19914;-72
2021/03/02 03:16:45;;;;;;;29.50;18.25;;;6.40;99.90;;;5.95;88.86;101972.09;4105138;28;20043;-72
2021/03/02 03:18:57;;;;;;;22.63;14.90;;;6.40;99.90;;;6.08;87.90;101985.28;4120557;28;20110;-72
2021/03/02 03:21:00;;;;;;;22.33;14.52;;;6.30;99.90;;;6.02;88.33;101985.66;4120432;28;20139;-72
2021/03/02 03:23:04;;;;;;;23.58;14.02;;;6.30;99.90;;;5.99;87.11;101988.47;4120617;28;20018;-72
2021/03/02 03:25:08;;;;;;;26.75;17.42;;;6.30;99.90;;;5.81;86.84;101968.63;4104721;28;20094;-72
2021/03/02 03:27:10;;;;;;;27.08;18.92;;;6.20;99.90;;;5.90;87.22;101981.19;4121565;28;20057;-72
2021/03/02 03:29:11;;;;;;;31.25;19.17;;;6.20;99.90;;;5.73;87.95;101969.13;4104116;28;20030;-72
2021/03/02 03:31:15;;;;;;;33.35;19.50;;;6.20;99.90;;;5.85;88.25;101993.69;4104359;29;20039;-72
2021/03/02 03:33:19;;;;;;;27.90;17.52;;;6.20;99.90;;;5.90;88.38;101992.50;4121506;28;20610;-72
2021/03/02 03:35:22;;;;;;;29.48;18.40;;;6.20;99.90;;;5.96;88.02;101991.28;4076253;29;20072;-72
2021/03/02 03:37:23;;;;;;;32.13;19.73;;;6.20;99.90;;;6.14;88.34;101984.88;4088389;29;20511;-72
2021/03/02 03:39:24;;;;;;;26.23;18.50;;;6.30;99.90;;;6.10;88.50;101996.47;4089654;29;20043;-72
2021/03/02 03:41:25;;;;;;;27.77;17.40;;;6.30;99.90;;;5.95;87.98;101990.44;4089616;29;20086;-72
2021/03/02 03:43:26;;;;;;;31.88;20.40;;;6.30;99.90;;;5.90;88.95;101991.66;4088284;29;20042;-72
2021/03/02 03:45:27;;;;;;;30.48;18.42;;;6.30;99.90;;;5.93;88.85;101994.94;4089345;29;20040;-72
2021/03/02 03:47:28;;;;;;;32.78;19.17;;;6.30;99.90;;;5.86;88.96;101977.06;4089513;29;20038;-72
2021/03/02 03:49:29;;;;;;;30.33;17.95;;;6.30;99.90;;;5.83;89.13;101985.94;4088103;29;20058;-72
2021/03/02 03:51:31;;;;;;;33.03;21.13;;;6.30;99.90;;;6.07;89.63;102008.00;4088285;29;20444;-72
2021/03/02 03:53:37;;;;;;;32.58;19.02;;;6.40;99.90;;;6.05;90.04;101991.56;4088083;29;20492;-72
2021/03/02 03:55:43;;;;;;;34.60;20.42;;;6.40;99.90;;;6.08;89.15;101982.66;4088372;29;20099;-72
2021/03/02 03:57:45;;;;;;;30.90;20.20;;;6.50;99.90;;;6.21;89.26;102003.69;4088166;29;20035;-72
2021/03/02 03:59:47;;;;;;;28.85;19.23;;;6.50;99.90;;;6.10;88.74;101986.00;4087676;29;20024;-72
2021/03/02 04:01:49;;;;;;;31.88;20.65;;;6.60;99.90;;;6.17;89.47;102005.66;4089462;29;20396;-72
2021/03/02 04:03:51;;;;;;;37.47;21.70;;;6.60;99.90;;;6.01;89.38;101990.06;4088093;29;20116;-72
2021/03/02 04:05:52;;;;;;;30.42;19.10;;;6.60;99.90;;;6.23;89.48;102000.03;4088022;29;20055;-72
2021/03/02 04:07:54;;;;;;;29.00;19.25;;;6.60;99.90;;;5.94;87.96;101959.13;4087845;29;20063;-72
2021/03/02 04:09:56;;;;;;;32.85;20.50;;;6.60;99.90;;;6.24;87.75;102001.72;4087854;29;20052;-72
2021/03/02 04:11:56;;;;;;;31.50;19.00;;;6.60;99.90;;;5.98;88.87;101976.31;4088035;29;20063;-72
2021/03/02 04:13:57;;;;;;;32.35;20.13;;;6.50;99.90;;;6.07;88.58;101986.19;4087608;29;20038;-72
2021/03/02 04:15:59;;;;;;;38.03;20.88;;;6.60;99.90;;;6.25;88.45;102003.38;4074968;29;20036;-72
2021/03/02 04:18:00;;;;;;;29.52;19.13;;;6.60;99.90;;;6.21;88.29;102006.31;4089230;29;20028;-72
2021/03/02 04:20:03;;;;;;;31.85;19.70;;;6.60;99.90;;;6.21;88.27;102016.78;4088963;29;20039;-72
2021/03/02 04:22:04;;;;;;;35.80;19.52;;;6.50;99.90;;;5.83;87.64;101943.19;4089061;29;20514;-72
2021/03/02 04:24:06;;;;;;;31.70;20.85;;;6.50;99.90;;;6.17;88.39;102016.13;4088796;29;20035;-71
2021/03/02 04:26:07;;;;;;;32.03;19.77;;;6.50;99.90;;;6.26;87.42;102014.72;4089054;29;20087;-72
2021/03/02 04:28:08;;;;;;;31.17;18.92;;;6.50;99.90;;;6.09;88.03;101992.22;4088830;29;20040;-72
2021/03/02 04:30:10;;;;;;;29.85;19.65;;;6.50;99.90;;;6.02;88.81;102020.56;4087455;29;20507;-72
2021/03/02 04:32:11;;;;;;;29.25;19.17;;;6.50;99.90;;;6.07;88.45;102020.25;4086682;29;20507;-72
2021/03/02 04:34:12;;;;;;;27.73;19.08;;;6.40;99.90;;;6.02;88.38;102024.94;4095722;28;20054;-72
2021/03/02 04:36:12;;;;;;;30.10;19.20;;;6.40;99.90;;;5.93;89.11;102008.03;4120489;28;20054;-72
2021/03/02 04:38:13;;;;;;;28.90;18.58;;;6.30;99.90;;;6.02;88.89;102024.94;4103372;29;20094;-72
2021/03/02 04:40:15;;;;;;;31.77;20.02;;;6.30;99.90;;;6.02;89.22;102022.31;4120365;28;20061;-72
2021/03/02 04:42:16;;;;;;;30.15;20.55;;;6.40;99.90;;;5.96;88.42;102002.59;4120471;28;20030;-72
2021/03/02 04:44:17;;;;;;;31.02;19.13;;;6.40;99.90;;;5.83;88.83;101995.56;4120274;28;20160;-72
2021/03/02 04:46:19;;;;;;;31.98;20.15;;;6.40;99.90;;;5.95;88.41;101989.59;4087490;29;20135;-72
2021/03/02 04:48:20;;;;;;;31.67;20.15;;;6.40;99.90;;;5.96;89.08;101999.13;4120117;28;20030;-72
2021/03/02 04:50:21;;;;;;;29.90;19.38;;;6.40;99.90;;;5.98;89.70;102015.59;4120314;28;20057;-72
2021/03/02 04:52:22;;;;;;;30.30;19.55;;;6.40;99.90;;;5.98;89.64;102010.34;4103125;29;20019;-72
2021/03/02 04:54:25;;;;;;;28.13;19.38;;;6.40;99.90;;;5.87;89.73;101997.09;4103060;29;20031;-72
2021/03/02 04:56:25;;;;;;;31.23;19.98;;;6.40;99.90;;;5.90;89.94;101999.53;4102855;29;20026;-72
2021/03/02 04:58:26;;;;;;;32.17;20.45;;;6.40;99.90;;;6.01;89.38;102011.00;4120258;28;20031;-72
2021/03/02 05:00:27;;;;;;;29.75;18.95;;;6.50;99.90;;;6.23;87.92;102020.13;4102501;29;20027;-72
2021/03/02 05:02:28;;;;;;;28.70;19.10;;;6.50;99.90;;;6.18;88.41;102023.06;4102838;29;20070;-72
2021/03/02 05:04:29;;;;;;;30.85;18.40;;;6.50;99.90;;;6.19;88.50;102027.34;4089784;29;20032;-72
2021/03/02 05:06:30;;;;;;;30.67;19.52;;;6.50;99.90;;;6.10;89.04;102020.06;4107521;28;20518;-72
2021/03/02 05:08:31;;;;;;;31.85;18.83;;;6.50;99.90;;;6.07;89.20;102025.50;4120106;28;20026;-72
2021/03/02 05:10:32;;;;;;;31.17;20.10;;;6.50;99.90;;;6.02;89.34;102024.94;4119973;28;20491;-72
2021/03/02 05:12:33;;;;;;;34.72;20.85;;;6.50;99.90;;;5.95;89.21;102006.16;4119934;28;20027;-72
2021/03/02 05:14:34;;;;;;;34.33;20.23;;;6.40;99.90;;;6.07;89.08;102017.63;4102549;29;20138;-72
2021/03/02 05:16:35;;;;;;;32.13;21.15;;;6.50;99.90;;;5.83;88.10;101974.59;4119977;28;20062;-72
2021/03/02 05:18:36;;;;;;;28.45;18.60;;;6.50;99.90;;;5.99;88.38;102001.56;4120005;28;20023;-72
2021/03/02 05:20:37;;;;;;;29.38;18.48;;;6.50;99.90;;;5.83;89.02;102000.78;4120009;28;20045;-72
2021/03/02 05:22:38;;;;;;;29.83;18.48;;;6.40;99.90;;;5.88;89.43;102015.34;4119287;28;20093;-72
2021/03/02 05:24:39;;;;;;;28.65;18.10;;;6.40;99.90;;;5.96;89.68;102025.31;4102756;28;20127;-72
2021/03/02 05:26:40;;;;;;;29.77;18.05;;;6.40;99.90;;;5.97;89.04;102025.22;4119997;28;20518;-72
2021/03/02 05:28:41;;;;;;;29.17;19.27;;;6.40;99.90;;;5.55;89.45;101967.63;4119730;28;20035;-72
2021/03/02 05:30:42;;;;;;;27.65;18.60;;;6.40;99.90;;;5.80;89.63;102030.63;4119520;28;20038;-72
2021/03/02 05:32:43;;;;;;;30.90;19.70;;;6.30;99.90;;;5.79;89.94;102026.34;4102687;29;20072;-72
2021/03/02 05:34:44;;;;;;;25.23;17.88;;;6.20;99.90;;;5.72;89.62;102008.47;4119597;28;20039;-72
2021/03/02 05:36:45;;;;;;;30.52;20.13;;;6.20;99.90;;;5.51;89.72;101990.53;4102505;29;20428;-72
2021/03/02 05:38:46;;;;;;;30.73;19.45;;;6.10;99.90;;;5.70;90.39;102013.81;4119616;28;20030;-72
2021/03/02 05:40:47;;;;;;;32.85;18.63;;;6.10;99.90;;;5.71;89.65;102036.44;4119781;28;20067;-72
2021/03/02 05:42:48;;;;;;;35.00;20.65;;;6.10;99.90;;;5.78;89.06;102029.88;4119647;28;20034;-72
2021/03/02 05:44:49;;;;;;;33.55;19.73;;;6.10;99.90;;;5.66;89.67;102028.03;4102210;29;20055;-72
2021/03/02 05:46:51;;;;;;;28.25;19.15;;;6.00;99.90;;;5.40;90.55;101990.34;4119519;28;20034;-72
2021/03/02 05:48:52;;;;;;;29.35;19.05;;;6.00;99.90;;;5.75;89.67;102024.84;4102187;29;20059;-72
2021/03/02 05:50:53;;;;;;;33.15;19.48;;;6.00;99.90;;;5.73;89.07;102028.50;4102284;29;20414;-72
2021/03/02 05:53:00;;;;;;;30.55;18.58;;;6.00;99.90;;;5.73;88.47;102020.63;4119534;28;20022;-72
2021/03/02 05:55:02;;;;;;;30.40;18.58;;;6.00;99.90;;;5.61;89.38;102027.47;4102399;28;20034;-73
2021/03/02 05:57:04;;;;;;;33.08;18.77;;;6.00;99.90;;;5.65;88.68;102018.47;4119471;28;20525;-72
2021/03/02 05:59:05;;;;;;;28.38;17.27;;;5.90;99.90;;;5.46;88.64;102010.06;4119219;28;20027;-72
2021/03/02 06:01:06;;;;;;;30.10;18.45;;;5.90;99.90;;;5.29;89.18;101995.34;4119434;28;20166;-72
2021/03/02 06:03:08;;;;;;;29.77;19.25;;;5.90;99.90;;;5.34;89.41;102003.78;4119443;28;20081;-72
2021/03/02 06:05:10;;;;;;;25.65;16.70;;;5.90;99.90;;;5.45;89.38;102017.06;4119589;28;20058;-72
2021/03/02 06:07:10;;;;;;;29.55;17.67;;;5.80;99.90;;;5.51;89.52;102015.84;4119581;28;20026;-72
2021/03/02 06:09:11;;;;;;;29.00;17.25;;;5.90;99.90;;;5.54;88.74;102026.13;4119558;28;20064;-72
2021/03/02 06:11:30;;;;;;;25.67;17.17;;;5.80;99.90;;;5.39;89.63;102020.06;4119182;28;20091;-72
2021/03/02 06:13:30;;;;;;;25.42;16.55;;;5.80;99.90;;;5.23;90.20;102007.97;4119496;28;20030;-72
2021/03/02 06:15:31;;;;;;;29.52;19.70;;;5.80;99.90;;;5.34;90.52;102024.72;4108927;28;20403;-72
2021/03/02 06:17:34;;;;;;;27.48;17.58;;;5.70;99.90;;;5.36;90.50;102028.09;4099698;29;20024;-72
2021/03/02 06:19:47;;;;;;;28.00;18.13;;;5.70;99.90;;;5.40;90.39;102024.38;4103069;28;20046;-73
2021/03/02 06:21:48;;;;;;;33.58;19.20;;;5.80;99.90;;;5.41;90.64;102019.94;4117146;28;20047;-72
2021/03/02 06:23:52;;;;;;;29.02;17.58;;;5.80;99.90;;;5.42;90.72;102027.72;4135326;28;20169;-72
2021/03/02 06:25:56;;;;;;;30.55;18.50;;;5.80;99.90;;;5.49;90.13;102023.81;4135486;28;20037;-72
2021/03/02 06:27:57;;;;;;;35.05;20.58;;;5.80;99.90;;;5.27;90.11;102002.47;4135500;28;20035;-72
2021/03/02 06:30:15;;;;;;;36.00;19.95;;;5.80;99.90;;;5.38;89.87;102015.75;4117770;28;20075;-72
2021/03/02 06:32:35;;;;;;;32.33;18.33;;;5.80;99.90;;;5.53;89.99;102032.28;4118286;28;20537;-72
2021/03/02 06:34:36;;;;;;;28.25;18.95;;;5.80;99.90;;;5.54;89.89;102041.84;4133709;28;20050;-73
2021/03/02 06:36:43;;;;;;;35.35;19.27;;;5.90;99.90;;;5.40;89.58;102039.22;4122170;28;20073;-73
2021/03/02 06:38:44;;;;;;;32.20;19.65;;;5.80;99.90;;;5.39;89.55;102048.84;4122143;28;20475;-73
2021/03/02 06:40:48;;;;;;;26.80;18.85;;;5.80;99.90;;;5.34;89.33;102043.03;4122404;28;20034;-73
2021/03/02 06:42:49;;;;;;;33.97;21.48;;;5.80;99.90;;;5.17;90.05;102027.47;4122245;28;20161;-72
2021/03/02 06:44:52;;;;;;;33.05;19.60;;;5.70;99.90;;;5.17;90.21;102027.47;4121979;28;20035;-73
2021/03/02 06:46:53;;;;;;;33.85;19.88;;;5.70;99.90;;;5.14;90.03;102022.44;4122085;28;20101;-73
2021/03/02 06:48:57;;;;;;;31.50;18.90;;;5.70;99.90;;;5.28;89.55;102032.94;4120932;28;20030;-73
2021/03/02 06:50:59;;;;;;;31.20;19.20;;;5.70;99.90;;;5.00;89.32;101998.84;4120948;28;20034;-73
2021/03/02 06:53:09;;;;;;;35.53;20.23;;;5.70;99.90;;;5.31;89.17;102051.06;4121092;28;20027;-73
2021/03/02 06:55:15;;;;;;;28.73;18.33;;;5.70;99.90;;;5.29;88.86;102050.28;4121066;28;20074;-73
2021/03/02 06:57:21;;;;;;;32.72;20.05;;;5.60;99.90;;;5.27;88.84;102043.47;4122300;28;20051;-73
2021/03/02 06:59:23;;;;;;;37.20;21.10;;;5.60;99.90;;;5.18;88.41;102050.09;4120496;28;20062;-73
2021/03/02 07:01:36;;;;;;;39.95;21.20;;;5.50;99.90;;;5.21;88.57;102057.75;4120745;28;20023;-72
2021/03/02 07:03:37;;;;;;;37.45;19.67;;;5.50;99.90;;;5.13;89.15;102052.16;4120627;28;20039;-73
2021/03/02 07:08:44;;;;;;;29.50;18.48;;;5.50;99.90;;;4.94;89.34;102039.28;4121768;28;20049;-73
2021/03/02 07:10:59;;;;;;;33.47;19.00;;;5.50;99.90;;;5.11;89.63;102051.38;4121669;28;20089;-73
2021/03/02 07:13:27;;;;;;;27.13;17.23;;;5.50;99.90;;;5.18;89.31;102050.09;4121196;28;20581;-73
2021/03/02 07:15:50;;;;;;;32.92;19.95;;;5.50;99.90;;;5.22;89.31;102051.63;4121511;28;20033;-73
2021/03/02 07:17:57;;;;;;;30.73;19.58;;;5.60;99.90;;;5.30;89.94;102059.84;4107584;28;20522;-73
2021/03/02 07:20:10;;;;;;;30.08;17.83;;;5.60;99.90;;;5.27;89.35;102046.09;4119680;28;20042;-73
2021/03/02 07:22:19;;;;;;;25.70;16.60;;;5.70;99.90;;;5.48;88.16;102057.91;4119541;28;20035;-72
2021/03/02 07:25:01;;;;;;;33.80;18.63;;;5.80;99.90;;;5.12;89.75;102023.44;4119720;28;20543;-71
2021/03/02 07:27:14;;;;;;;28.27;16.83;;;5.80;99.90;;;5.43;89.30;102071.28;4114913;28;20082;-72
2021/03/02 07:29:15;;;;;;;32.83;18.35;;;5.90;99.90;;;5.36;90.45;102066.47;4117684;28;20122;-73
2021/03/02 07:31:16;;;;;;;27.45;17.15;;;5.90;99.90;;;5.27;90.40;102057.41;4121090;28;20043;-73
2021/03/02 07:33:18;;;;;;;34.70;19.35;;;5.90;99.90;;;5.43;90.64;102079.13;4120802;28;20023;-73
2021/03/02 07:35:22;;;;;;;32.63;21.20;;;5.90;99.90;;;5.55;89.74;102075.75;4107474;28;20500;-73
2021/03/02 07:37:24;;;;;;;34.50;19.40;;;5.90;99.90;;;5.27;89.68;102023.41;4105130;29;20027;-73
2021/03/02 07:39:27;;;;;;;30.45;18.05;;;6.10;99.90;;;5.62;89.33;102075.41;4105053;28;20027;-73
2021/03/02 07:41:34;;;;;;;35.70;22.13;;;6.10;99.90;;;5.72;89.52;102071.31;4105403;29;20507;-73
2021/03/02 07:43:37;;;;;;;30.25;19.20;;;6.10;99.90;;;5.74;90.13;102078.13;4105031;29;20129;-72
2021/03/02 07:45:38;;;;;;;33.25;21.10;;;6.30;99.90;;;5.65;89.64;102049.88;4104556;28;20035;-73
2021/03/02 07:47:47;;;;;;;28.13;17.92;;;6.20;99.90;;;5.70;89.52;102042.63;4105259;29;20042;-73
2021/03/02 07:49:48;;;;;;;32.00;19.45;;;6.30;99.90;;;5.85;88.72;102064.41;4102494;28;20427;-73
2021/03/02 07:52:01;;;;;;;34.75;20.33;;;6.40;99.90;;;5.97;89.16;102085.47;4102425;29;20059;-73
2021/03/02 07:54:16;;;;;;;33.00;20.90;;;6.40;99.90;;;6.06;88.15;102094.56;4103913;29;20077;-72
2021/03/02 07:56:23;;;;;;;28.98;18.42;;;6.50;99.90;;;5.91;89.09;102083.22;4103566;29;20054;-73
2021/03/02 07:58:24;;;;;;;33.90;20.00;;;6.50;99.90;;;6.02;88.93;102088.66;4103318;29;20062;-73
2021/03/02 08:00:26;;;;;;;33.33;20.75;;;6.50;99.90;;;6.21;88.12;102090.16;4103276;29;20082;-73
2021/03/02 08:02:27;;;;;;;27.38;18.55;;;6.60;99.90;;;5.96;88.17;102069.84;4104514;28;20035;-73
2021/03/02 08:04:28;;;;;;;31.92;21.23;;;6.70;99.90;;;6.23;88.65;102110.06;4104599;28;20031;-73
2021/03/02 08:06:33;;;;;;;33.78;22.58;;;6.70;99.90;;;6.42;87.56;102092.25;4103960;29;20035;-73
2021/03/02 08:08:36;;;;;;;32.22;20.85;;;6.80;99.90;;;6.41;87.71;102097.59;4104613;28;20047;-73
2021/03/02 08:10:37;;;;;;;33.97;21.63;;;7.00;99.90;;;6.42;88.20;102094.88;4098299;28;20039;-73
2021/03/02 08:12:38;;;;;;;35.08;23.25;;;7.00;99.90;;;6.59;87.47;102106.94;4103228;29;20035;-73
2021/03/02 08:14:39;;;;;;;33.65;21.15;;;7.10;99.90;;;6.67;87.53;102099.41;4104023;28;20475;-73
2021/03/02 08:17:05;;;;;;;35.10;21.90;;;7.20;99.90;;;6.73;88.26;102100.78;4104255;28;20027;-73
2021/03/02 08:19:49;;;;;;;35.88;22.08;;;7.30;99.90;;;6.75;87.00;102080.56;4101285;29;20041;-73
2021/03/02 08:21:49;;;;;;;35.45;22.00;;;7.40;99.90;;;6.50;86.58;102029.72;4102087;29;20035;-73
2021/03/02 08:23:58;;;;;;;36.65;22.70;;;7.50;99.90;;;7.01;86.17;102116.44;4102983;29;20462;-73
2021/03/02 08:26:26;;;;;;;36.80;22.05;;;7.60;99.90;;;6.88;85.82;102091.94;4102449;28;20030;-73
2021/03/02 08:28:27;;;;;;;37.78;23.17;;;7.70;99.90;;;6.95;86.37;102088.84;4108804;28;20023;-72
2021/03/02 08:30:37;;;;;;;36.60;22.92;;;7.70;99.90;;;7.00;85.64;102107.72;4103886;28;20063;-73
2021/03/02 08:32:41;;;;;;;37.75;22.90;;;7.90;99.90;;;6.86;86.20;102114.81;4103047;29;20540;-73
2021/03/02 08:34:44;;;;;;;40.25;24.23;;;7.90;99.90;;;6.85;87.84;102128.84;4119129;28;20169;-72
2021/03/02 08:36:51;;;;;;;41.50;23.97;;;7.90;99.90;;;6.93;87.12;102137.09;4136090;28;20030;-73
2021/03/02 08:38:52;;;;;;;37.30;23.05;;;7.90;99.90;;;6.71;86.82;102090.41;4136038;28;20277;-72
2021/03/02 08:40:53;;;;;;;37.47;22.42;;;7.90;99.90;;;6.50;86.70;102057.69;4118894;28;20033;-73
2021/03/02 08:43:16;;;;;;;39.08;22.90;;;7.90;99.90;;;7.29;86.11;102128.63;4118532;28;20038;-73